Time;durP1;ratioP1;P1;durP2;ratioP2;P2;SDS_P1;SDS_P2;PMS_P1;PMS_P2;Temp;Humidity;BMP_temperature;BMP_pressure;BME280_temperature;BME280_humidity;BME280_pressure;Samples;Min_cycle;Max_cycle;Signal;HPM_P1;HPM_P2
2024/04/11 00:01:34;;;;;;;2.90;1.33;;;17.30;85.50;;;;;;5346919;26;20455;-38
2024/04/11 00:03:59;;;;;;;3.85;1.50;;;17.30;85.50;;;;;;5347189;26;19996;-39
2024/04/11 00:06:25;;;;;;;3.05;1.50;;;17.30;85.40;;;;;;5347393;26;20001;-38
2024/04/11 00:08:50;;;;;;;4.43;1.30;;;17.30;85.40;;;;;;5347006;26;20044;-39
2024/04/11 00:11:18;;;;;;;2.90;1.50;;;17.30;85.40;;;;;;5346993;26;20008;-39
2024/04/11 00:13:44;;;;;;;4.53;1.67;;;17.30;85.40;;;;;;5347023;26;20075;-39
2024/04/11 00:16:10;;;;;;;3.40;1.50;;;17.30;85.40;;;;;;5347098;26;20007;-39
2024/04/11 00:18:39;;;;;;;2.45;1.38;;;17.30;85.40;;;;;;5346419;26;20001;-39
2024/04/11 00:21:05;;;;;;;3.55;1.50;;;17.30;85.40;;;;;;5346650;26;20012;-38
2024/04/11 00:23:31;;;;;;;3.35;1.30;;;17.30;85.40;;;;;;5346933;26;20012;-38
2024/04/11 00:25:58;;;;;;;3.50;1.70;;;17.20;85.30;;;;;;5345328;26;20446;-39
2024/04/11 00:28:25;;;;;;;3.05;1.20;;;17.30;85.40;;;;;;5346808;26;20011;-39
2024/04/11 00:30:51;;;;;;;3.53;1.40;;;17.30;85.30;;;;;;5346691;26;20043;-39
2024/04/11 00:33:17;;;;;;;4.35;1.30;;;17.20;85.20;;;;;;5347726;26;20440;-39
2024/04/11 00:35:49;;;;;;;4.72;1.50;;;17.20;85.20;;;;;;5347217;26;20008;-39
2024/04/11 00:38:18;;;;;;;2.92;1.30;;;17.20;85.20;;;;;;5345170;26;20000;-39
2024/04/11 00:40:55;;;;;;;3.50;1.33;;;17.30;85.20;;;;;;5346011;26;20008;-39
2024/04/11 00:43:21;;;;;;;4.00;1.20;;;17.20;85.10;;;;;;5346157;26;19997;-39
2024/04/11 00:45:47;;;;;;;3.10;1.45;;;17.20;85.10;;;;;;5346048;26;20008;-39
2024/04/11 00:48:15;;;;;;;2.80;1.25;;;17.20;85.10;;;;;;5346009;26;19997;-39
2024/04/11 00:50:42;;;;;;;4.53;1.52;;;17.20;85.10;;;;;;5345867;26;20011;-39
2024/04/11 00:53:09;;;;;;;3.95;1.73;;;17.20;85.20;;;;;;5346135;26;20342;-38
2024/04/11 00:55:38;;;;;;;3.35;1.33;;;17.20;85.10;;;;;;5345830;26;20001;-39
2024/04/11 00:58:03;;;;;;;3.90;1.60;;;17.20;85.10;;;;;;5345673;26;20024;-39
2024/04/11 01:00:29;;;;;;;2.67;1.42;;;17.20;85.10;;;;;;5345557;26;20454;-39
2024/04/11 01:02:56;;;;;;;4.40;1.48;;;17.10;85.00;;;;;;5345732;26;19997;-39
2024/04/11 01:05:22;;;;;;;2.00;1.17;;;17.10;85.00;;;;;;5345430;26;19996;-39
2024/04/11 01:07:51;;;;;;;3.58;1.60;;;17.10;85.00;;;;;;5345565;26;20015;-38
2024/04/11 01:10:17;;;;;;;1.83;1.10;;;17.10;85.00;;;;;;5343613;26;20004;-39
2024/04/11 01:12:43;;;;;;;2.05;1.05;;;17.10;84.90;;;;;;5345595;26;20008;-39
2024/04/11 01:15:10;;;;;;;2.88;1.30;;;17.10;84.90;;;;;;5345569;26;20392;-39
2024/04/11 01:17:36;;;;;;;1.83;1.20;;;17.10;85.00;;;;;;5345540;26;20000;-39
2024/04/11 01:20:04;;;;;;;5.15;1.23;;;17.10;84.90;;;;;;5345185;26;19997;-39
2024/04/11 01:22:30;;;;;;;1.98;1.20;;;17.10;84.80;;;;;;5344583;26;20505;-39
2024/04/11 01:24:56;;;;;;;2.00;1.15;;;17.10;84.80;;;;;;5345550;26;20005;-39
2024/04/11 01:27:21;;;;;;;2.88;1.20;;;17.10;84.80;;;;;;5345308;26;20004;-39
2024/04/11 01:29:49;;;;;;;2.30;1.10;;;17.10;84.70;;;;;;5345098;26;20075;-39
2024/04/11 01:32:16;;;;;;;2.42;1.13;;;17.00;84.70;;;;;;5344986;26;20051;-39
2024/04/11 01:34:41;;;;;;;3.17;1.48;;;17.10;84.80;;;;;;5345199;26;20012;-39
2024/04/11 01:37:07;;;;;;;1.83;1.08;;;17.10;84.80;;;;;;5345112;26;20367;-39
2024/04/11 01:39:33;;;;;;;3.70;1.02;;;17.00;84.70;;;;;;5399153;21;20552;-43
2024/04/11 01:41:58;;;;;;;2.47;1.27;;;17.10;84.80;;;;;;5450755;26;20005;-45
2024/04/11 01:44:24;;;;;;;2.97;1.10;;;17.10;84.80;;;;;;5451276;26;19998;-45
2024/04/11 01:46:52;;;;;;;3.28;1.48;;;17.00;84.70;;;;;;5451238;26;19995;-44
2024/04/11 01:49:18;;;;;;;2.00;1.23;;;17.00;84.70;;;;;;5450966;26;20447;-43
2024/04/11 01:51:44;;;;;;;3.53;1.35;;;17.10;84.60;;;;;;5450766;26;20436;-47
2024/04/11 01:54:11;;;;;;;2.38;1.30;;;17.10;84.60;;;;;;5451180;26;19991;-43
2024/04/11 01:56:37;;;;;;;2.78;1.20;;;17.10;84.70;;;;;;5451192;26;20025;-43
2024/04/11 01:59:04;;;;;;;3.53;1.30;;;17.10;84.70;;;;;;5450867;26;19995;-43
2024/04/11 02:01:34;;;;;;;2.08;1.10;;;17.00;84.60;;;;;;5449170;26;20335;-45
2024/04/11 02:04:05;;;;;;;5.10;1.27;;;17.00;84.60;;;;;;5450973;26;20024;-42
2024/04/11 02:06:34;;;;;;;1.65;1.10;;;17.00;84.60;;;;;;5451017;26;20002;-45
2024/04/11 02:09:00;;;;;;;1.85;1.10;;;17.00;84.50;;;;;;5450920;26;20463;-43
2024/04/11 02:11:26;;;;;;;2.63;1.15;;;17.00;84.60;;;;;;5450596;26;20455;-43
2024/04/11 02:13:52;;;;;;;1.75;1.13;;;17.00;84.50;;;;;;5450797;26;20009;-46
2024/04/11 02:16:19;;;;;;;2.38;1.27;;;17.00;84.60;;;;;;5450852;26;19995;-43
2024/04/11 02:18:45;;;;;;;1.98;1.10;;;17.00;84.60;;;;;;5450561;26;20007;-45
2024/04/11 02:21:11;;;;;;;1.60;1.20;;;17.00;84.50;;;;;;5451077;26;20339;-43
2024/04/11 02:23:39;;;;;;;3.88;1.30;;;16.90;84.50;;;;;;5450825;26;20443;-45
2024/04/11 02:26:04;;;;;;;1.63;1.00;;;17.00;84.50;;;;;;5450398;26;19994;-43
2024/04/11 02:28:30;;;;;;;2.65;1.10;;;16.90;84.50;;;;;;5450478;26;20006;-45
2024/04/11 02:30:55;;;;;;;1.73;1.08;;;16.90;84.60;;;;;;5450273;26;19999;-43
2024/04/11 02:33:22;;;;;;;2.50;1.23;;;16.90;84.50;;;;;;5450956;26;20010;-45
2024/04/11 02:35:47;;;;;;;2.83;1.02;;;16.90;84.40;;;;;;5454475;26;19991;-45
2024/04/11 02:38:13;;;;;;;2.17;1.10;;;16.90;84.50;;;;;;5453911;26;19994;-44
2024/04/11 02:40:39;;;;;;;2.33;1.20;;;16.90;84.40;;;;;;5453867;26;19994;-44
2024/04/11 02:43:04;;;;;;;3.72;1.20;;;16.90;84.40;;;;;;5454081;26;20312;-44
2024/04/11 02:45:30;;;;;;;1.80;1.05;;;16.90;84.40;;;;;;5453948;26;19999;-45
2024/04/11 02:47:57;;;;;;;2.45;1.02;;;16.90;84.40;;;;;;5453821;26;19999;-42
2024/04/11 02:50:23;;;;;;;2.17;0.93;;;16.90;84.60;;;;;;5453681;26;19999;-44
2024/04/11 02:52:49;;;;;;;2.25;1.15;;;16.90;84.50;;;;;;5453944;26;19995;-43
2024/04/11 02:55:15;;;;;;;3.72;1.27;;;16.90;84.40;;;;;;5453596;26;19991;-44
2024/04/11 02:57:42;;;;;;;3.80;1.35;;;16.90;84.50;;;;;;5453630;26;20010;-45
2024/04/11 03:00:09;;;;;;;3.72;1.25;;;16.90;84.50;;;;;;5453766;26;19999;-43
2024/04/11 03:02:35;;;;;;;2.22;1.13;;;16.90;84.40;;;;;;5453824;26;19998;-43
2024/04/11 03:05:01;;;;;;;2.25;1.10;;;16.80;84.30;;;;;;5453644;26;20299;-47
2024/04/11 03:07:27;;;;;;;2.45;1.30;;;16.80;84.30;;;;;;5453542;26;19998;-44
2024/04/11 03:09:56;;;;;;;1.55;0.90;;;16.90;84.30;;;;;;5453654;26;20009;-45
2024/04/11 03:12:22;;;;;;;2.67;1.17;;;16.90;84.30;;;;;;5453574;26;20007;-45
2024/04/11 03:14:48;;;;;;;3.25;1.10;;;16.80;84.20;;;;;;5453589;26;19995;-45
2024/04/11 03:17:13;;;;;;;2.60;0.80;;;16.90;84.30;;;;;;5453461;26;20006;-45
2024/04/11 03:19:40;;;;;;;3.35;1.05;;;16.80;84.20;;;;;;5453295;26;19998;-43
2024/04/11 03:22:08;;;;;;;3.17;1.10;;;16.80;84.10;;;;;;5453421;26;20002;-46
2024/04/11 03:24:34;;;;;;;2.47;1.17;;;16.80;84.20;;;;;;5453382;26;19995;-43
2024/04/11 03:27:02;;;;;;;3.92;1.20;;;16.80;84.20;;;;;;5453390;26;20340;-46
2024/04/11 03:29:29;;;;;;;2.63;1.30;;;16.80;84.20;;;;;;5453191;26;20009;-45
2024/04/11 03:31:54;;;;;;;2.83;1.10;;;16.80;84.20;;;;;;5453222;26;20014;-45
2024/04/11 03:34:23;;;;;;;2.38;1.20;;;16.80;84.20;;;;;;5453473;26;20451;-43
2024/04/11 03:36:49;;;;;;;3.22;1.30;;;16.80;84.20;;;;;;5453262;26;20011;-43
2024/04/11 03:39:15;;;;;;;5.10;1.65;;;16.80;84.20;;;;;;5453063;26;19999;-43
2024/04/11 03:41:44;;;;;;;2.67;1.25;;;16.80;84.10;;;;;;5453203;26;19999;-45
2024/04/11 03:44:10;;;;;;;3.55;1.30;;;16.70;84.00;;;;;;5452595;26;19999;-43
2024/04/11 03:46:36;;;;;;;1.70;1.00;;;16.80;84.20;;;;;;5453057;26;20009;-43
2024/04/11 03:49:04;;;;;;;2.88;1.10;;;16.80;84.20;;;;;;5452912;26;20370;-45
2024/04/11 03:51:33;;;;;;;2.38;1.20;;;16.80;84.10;;;;;;5452781;26;20006;-43
2024/04/11 03:54:00;;;;;;;2.72;1.00;;;16.70;84.10;;;;;;5453581;26;20009;-43
2024/04/11 03:56:29;;;;;;;3.88;1.38;;;16.70;84.10;;;;;;5453102;26;20325;-45
2024/04/11 03:58:56;;;;;;;2.55;1.17;;;16.70;84.10;;;;;;5452808;26;19995;-43
2024/04/11 04:01:22;;;;;;;2.30;1.30;;;16.70;84.00;;;;;;5452780;26;20324;-43
2024/04/11 04:03:52;;;;;;;2.92;1.23;;;16.70;84.00;;;;;;5452876;26;20092;-43
2024/04/11 04:06:18;;;;;;;3.85;1.10;;;16.70;84.10;;;;;;5453118;26;20005;-43
2024/04/11 04:08:47;;;;;;;3.00;1.08;;;16.70;84.00;;;;;;5453265;26;19994;-45
2024/04/11 04:11:13;;;;;;;2.28;1.20;;;16.70;84.00;;;;;;5450798;26;20032;-47
2024/04/11 04:13:40;;;;;;;2.08;1.02;;;16.70;84.00;;;;;;5452769;26;19995;-45
2024/04/11 04:16:14;;;;;;;2.50;1.23;;;16.70;83.90;;;;;;5452653;26;20343;-43
2024/04/11 04:18:46;;;;;;;3.42;0.95;;;16.70;83.90;;;;;;5452630;26;19999;-43
2024/04/11 04:21:13;;;;;;;3.53;0.93;;;16.70;83.90;;;;;;5452420;26;20009;-45
2024/04/11 04:23:42;;;;;;;1.73;1.00;;;16.70;84.00;;;;;;5452680;26;20006;-44
2024/04/11 04:26:09;;;;;;;1.98;1.10;;;16.70;84.00;;;;;;5452808;26;20458;-45
2024/04/11 04:28:37;;;;;;;2.53;0.88;;;16.70;83.90;;;;;;5452463;26;20497;-46
2024/04/11 04:31:16;;;;;;;3.83;1.38;;;16.70;83.90;;;;;;5452062;26;20316;-43
2024/04/11 04:33:49;;;;;;;4.10;1.42;;;16.70;83.90;;;;;;5452921;26;19999;-42
2024/04/11 04:36:18;;;;;;;2.30;1.08;;;16.60;83.80;;;;;;5452564;26;20455;-46
2024/04/11 04:38:49;;;;;;;2.50;1.17;;;16.70;84.00;;;;;;5452320;26;20335;-43
2024/04/11 04:41:16;;;;;;;4.55;1.30;;;16.60;83.90;;;;;;5452288;26;19995;-45
2024/04/11 04:43:44;;;;;;;2.25;1.00;;;16.60;83.90;;;;;;5452320;26;20013;-43
2024/04/11 04:46:15;;;;;;;1.77;0.98;;;16.60;84.60;;;;;;5452228;26;20335;-47
2024/04/11 04:48:41;;;;;;;2.90;1.25;;;16.60;84.00;;;;;;5452308;26;20448;-43
2024/04/11 04:51:08;;;;;;;3.90;1.35;;;16.50;83.80;;;;;;5451877;26;20026;-43
2024/04/11 04:53:34;;;;;;;1.85;1.00;;;16.50;83.90;;;;;;5452162;26;20009;-45
2024/04/11 04:56:00;;;;;;;2.67;1.20;;;16.60;84.00;;;;;;5450751;26;20436;-47
2024/04/11 04:58:26;;;;;;;1.55;0.82;;;16.60;84.00;;;;;;5452154;26;20321;-43
2024/04/11 05:00:52;;;;;;;3.45;1.30;;;16.60;83.90;;;;;;5452153;26;20006;-43
2024/04/11 05:03:18;;;;;;;2.28;1.10;;;16.50;83.90;;;;;;5452187;26;19999;-47
2024/04/11 05:05:44;;;;;;;2.60;1.10;;;16.60;84.00;;;;;;5452077;26;20019;-44
2024/04/11 05:08:13;;;;;;;2.38;1.20;;;16.60;84.00;;;;;;5451905;26;20014;-45
2024/04/11 05:10:40;;;;;;;2.35;1.30;;;16.60;83.90;;;;;;5451600;26;20003;-47
2024/04/11 05:13:09;;;;;;;3.08;1.10;;;16.50;83.90;;;;;;5451942;26;19995;-45
2024/04/11 05:15:38;;;;;;;2.53;1.15;;;16.50;84.00;;;;;;5452011;26;20092;-45
2024/04/11 05:18:05;;;;;;;3.38;1.20;;;16.50;83.80;;;;;;5451728;26;20009;-44
2024/04/11 05:20:33;;;;;;;4.30;1.10;;;16.50;84.00;;;;;;5451648;26;19999;-45
2024/04/11 05:23:06;;;;;;;2.20;0.88;;;16.50;84.00;;;;;;5452059;26;19999;-44
2024/04/11 05:25:33;;;;;;;1.92;0.90;;;16.50;84.00;;;;;;5452129;26;20079;-45
2024/04/11 05:27:59;;;;;;;2.28;1.00;;;16.50;83.90;;;;;;5451551;26;20007;-47
2024/04/11 05:30:27;;;;;;;2.05;1.02;;;16.50;84.00;;;;;;5451529;26;19995;-45
2024/04/11 05:32:55;;;;;;;1.30;1.02;;;16.50;84.00;;;;;;5451738;26;20002;-42
2024/04/11 05:35:23;;;;;;;3.10;1.13;;;16.50;84.00;;;;;;5451585;26;20026;-44
2024/04/11 05:37:49;;;;;;;1.45;0.82;;;16.50;84.00;;;;;;5451369;26;19999;-44
2024/04/11 05:40:16;;;;;;;2.35;1.00;;;16.50;84.10;;;;;;5451323;26;20071;-45
2024/04/11 05:42:45;;;;;;;2.85;1.10;;;16.50;84.00;;;;;;5451547;26;20336;-45
2024/04/11 05:45:11;;;;;;;2.65;1.02;;;16.40;84.00;;;;;;5451389;26;20031;-47
2024/04/11 05:47:37;;;;;;;2.70;1.15;;;16.40;84.10;;;;;;5451334;26;19999;-45
2024/04/11 05:50:06;;;;;;;2.00;1.05;;;16.40;84.10;;;;;;5451320;26;19991;-45
2024/04/11 05:52:31;;;;;;;4.20;1.10;;;16.40;84.10;;;;;;5451776;26;20047;-43
2024/04/11 05:54:57;;;;;;;2.33;1.10;;;16.40;84.10;;;;;;5451193;26;19991;-43
2024/04/11 05:57:24;;;;;;;2.38;1.00;;;16.40;84.10;;;;;;5450921;26;20440;-42
2024/04/11 05:59:51;;;;;;;3.78;1.08;;;16.40;84.20;;;;;;5451101;26;20074;-45
2024/04/11 06:02:17;;;;;;;2.58;1.10;;;16.40;84.20;;;;;;5451001;26;20328;-43
2024/04/11 06:04:43;;;;;;;2.55;0.88;;;16.40;84.20;;;;;;5450916;26;20031;-44
2024/04/11 06:07:09;;;;;;;4.00;0.98;;;16.40;84.20;;;;;;5451160;26;20068;-42
2024/04/11 06:09:39;;;;;;;3.13;1.00;;;16.40;84.20;;;;;;5454434;26;20448;-42
2024/04/11 06:12:05;;;;;;;2.00;0.90;;;16.40;84.20;;;;;;5454570;26;20006;-45
2024/04/11 06:14:31;;;;;;;3.22;1.08;;;16.40;84.30;;;;;;5454402;26;19995;-45
2024/04/11 06:16:56;;;;;;;1.23;0.93;;;16.40;84.30;;;;;;5454411;26;20010;-46
2024/04/11 06:19:22;;;;;;;3.20;1.48;;;16.40;84.30;;;;;;5454102;26;19998;-43
2024/04/11 06:21:53;;;;;;;2.00;1.17;;;16.40;84.30;;;;;;5454196;26;20448;-44
2024/04/11 06:24:22;;;;;;;2.08;0.90;;;16.40;84.30;;;;;;5454475;26;20005;-42
2024/04/11 06:26:48;;;;;;;2.58;1.15;;;16.40;84.30;;;;;;5454253;26;20013;-43
2024/04/11 06:29:19;;;;;;;3.05;1.00;;;16.40;84.30;;;;;;5453978;26;19998;-44
2024/04/11 06:31:46;;;;;;;1.88;0.93;;;16.40;84.40;;;;;;5454058;26;20003;-43
2024/04/11 06:34:13;;;;;;;2.92;1.13;;;16.40;84.40;;;;;;5454476;26;20010;-44
2024/04/11 06:36:39;;;;;;;2.47;1.00;;;16.40;84.40;;;;;;5454156;26;19998;-42
2024/04/11 06:39:09;;;;;;;4.85;1.27;;;16.40;84.50;;;;;;5453915;26;20071;-42
2024/04/11 06:41:36;;;;;;;1.92;1.05;;;16.40;84.50;;;;;;5454011;26;19994;-44
2024/04/11 06:44:03;;;;;;;2.75;1.10;;;16.50;84.60;;;;;;5454372;26;20035;-43
2024/04/11 06:46:28;;;;;;;2.33;1.17;;;16.40;84.60;;;;;;5454257;26;20465;-44
2024/04/11 06:48:57;;;;;;;2.65;1.10;;;16.50;84.70;;;;;;5453960;26;19997;-43
2024/04/11 06:51:25;;;;;;;8.43;1.90;;;16.50;84.80;;;;;;5453571;26;20440;-40
2024/04/11 06:53:51;;;;;;;8.48;1.92;;;16.40;79.60;;;;;;5454288;26;19995;-43
2024/04/11 06:56:22;;;;;;;4.85;1.73;;;16.00;80.80;;;;;;5454116;26;20003;-43
2024/04/11 06:58:47;;;;;;;7.13;1.83;;;15.90;81.90;;;;;;5453857;26;19995;-42
2024/04/11 07:01:15;;;;;;;5.72;1.65;;;15.80;82.20;;;;;;5453711;26;20442;-41
2024/04/11 07:03:49;;;;;;;3.00;1.60;;;15.90;82.70;;;;;;5454128;26;20005;-44
2024/04/11 07:06:21;;;;;;;6.28;2.00;;;16.00;83.00;;;;;;5453862;26;19995;-42
2024/04/11 07:08:54;;;;;;;5.30;1.52;;;16.00;82.80;;;;;;5453784;26;20006;-44
2024/04/11 07:13:47;;;;;;;5.55;1.70;;;16.20;82.90;;;;;;5453827;26;20397;-40
2024/04/11 07:16:16;;;;;;;4.82;1.50;;;16.30;83.00;;;;;;5453635;26;20334;-45
2024/04/11 07:18:54;;;;;;;4.20;1.42;;;16.40;82.80;;;;;;5453096;26;19994;-43
2024/04/11 07:21:25;;;;;;;4.65;1.40;;;16.50;82.90;;;;;;5453441;26;20071;-41
2024/04/11 07:23:54;;;;;;;3.53;1.50;;;16.50;82.70;;;;;;5453550;26;20479;-42
2024/04/11 07:26:22;;;;;;;4.88;1.75;;;16.60;82.50;;;;;;5453583;26;20007;-43
2024/04/11 07:28:48;;;;;;;2.97;1.17;;;16.70;82.60;;;;;;5453299;26;20560;-41
2024/04/11 07:31:17;;;;;;;5.22;1.30;;;16.70;82.40;;;;;;5453205;26;19994;-40
2024/04/11 07:33:43;;;;;;;3.55;1.67;;;16.70;82.60;;;;;;5453353;26;20014;-42
2024/04/11 07:36:13;;;;;;;3.78;1.45;;;16.70;82.70;;;;;;5453622;26;20340;-41
2024/04/11 07:38:40;;;;;;;5.00;1.33;;;16.80;82.80;;;;;;5453174;26;20031;-44
2024/04/11 07:41:18;;;;;;;3.20;1.25;;;16.80;82.90;;;;;;5453807;26;20011;-44
2024/04/11 07:43:51;;;;;;;3.22;1.33;;;16.80;82.90;;;;;;5453481;26;20320;-42
2024/04/11 07:46:22;;;;;;;6.45;1.50;;;16.80;83.10;;;;;;5453310;26;20082;-41
2024/04/11 07:48:47;;;;;;;5.75;1.65;;;16.80;83.20;;;;;;5453108;26;19994;-41
2024/04/11 07:51:15;;;;;;;4.13;1.30;;;16.80;83.30;;;;;;5452815;26;20455;-43
2024/04/11 07:53:41;;;;;;;3.33;1.50;;;16.80;83.40;;;;;;5453224;26;20010;-42
2024/04/11 07:56:09;;;;;;;5.05;1.52;;;16.80;83.50;;;;;;5453031;26;20002;-43
2024/04/11 07:58:35;;;;;;;5.07;1.17;;;16.80;84.30;;;;;;5452872;26;20010;-41
2024/04/11 08:01:02;;;;;;;2.50;1.27;;;16.80;83.60;;;;;;5452844;26;19995;-41
2024/04/11 08:03:28;;;;;;;1.67;1.25;;;16.90;83.80;;;;;;5452901;26;20006;-41
2024/04/11 08:05:54;;;;;;;3.53;1.50;;;16.90;83.80;;;;;;5453012;26;20368;-42
2024/04/11 08:08:20;;;;;;;4.70;1.50;;;16.90;83.80;;;;;;5452753;26;19998;-42
2024/04/11 08:10:50;;;;;;;4.03;1.30;;;16.90;83.80;;;;;;5452550;26;19995;-40
2024/04/11 08:13:18;;;;;;;3.95;1.20;;;16.90;83.80;;;;;;5452895;26;20006;-42
2024/04/11 08:15:44;;;;;;;2.50;1.20;;;17.00;83.70;;;;;;5452990;26;20002;-42
2024/04/11 08:18:11;;;;;;;2.97;1.30;;;17.00;83.80;;;;;;5452452;26;19995;-41
2024/04/11 08:20:36;;;;;;;2.42;1.30;;;17.10;83.80;;;;;;5452573;26;20060;-42
2024/04/11 08:23:03;;;;;;;3.58;1.20;;;17.10;83.80;;;;;;5452581;26;20011;-41
2024/04/11 08:25:29;;;;;;;4.32;1.30;;;17.10;83.70;;;;;;5452362;26;20355;-42
2024/04/11 08:27:56;;;;;;;2.25;1.25;;;17.10;83.80;;;;;;5452873;26;20006;-45
2024/04/11 08:30:22;;;;;;;2.72;0.98;;;17.20;83.80;;;;;;5452392;26;20377;-41
2024/04/11 08:32:48;;;;;;;2.47;1.30;;;17.20;84.50;;;;;;5452332;26;20428;-41
2024/04/11 08:35:17;;;;;;;4.07;1.45;;;17.20;83.70;;;;;;5452472;26;20406;-42
2024/04/11 08:37:52;;;;;;;1.58;1.05;;;17.20;83.60;;;;;;5452252;26;20517;-41
2024/04/11 08:40:19;;;;;;;1.83;1.05;;;17.30;83.70;;;;;;5452263;26;20040;-42
2024/04/11 08:42:47;;;;;;;3.45;1.20;;;17.30;83.70;;;;;;5452476;26;20005;-43
2024/04/11 08:45:14;;;;;;;4.18;1.20;;;17.30;83.70;;;;;;5452148;26;20031;-42
2024/04/11 08:47:40;;;;;;;2.97;1.00;;;17.30;83.70;;;;;;5452222;26;20332;-41
2024/04/11 08:50:07;;;;;;;1.98;1.02;;;17.40;83.70;;;;;;5452064;26;20005;-41
2024/04/11 08:52:36;;;;;;;2.28;1.08;;;17.40;83.70;;;;;;5452332;26;20075;-42
2024/04/11 08:55:02;;;;;;;4.10;1.30;;;17.40;83.60;;;;;;5452090;26;19995;-45
2024/04/11 08:57:28;;;;;;;3.35;1.38;;;17.50;83.60;;;;;;5452064;26;20010;-40
2024/04/11 08:59:55;;;;;;;3.83;1.08;;;17.50;83.60;;;;;;5451930;26;19999;-41
2024/04/11 09:02:22;;;;;;;1.83;1.08;;;17.50;83.60;;;;;;5451924;26;19998;-41
2024/04/11 09:04:47;;;;;;;3.38;1.23;;;17.50;83.60;;;;;;5452126;26;20083;-43
2024/04/11 09:07:22;;;;;;;2.78;1.00;;;17.60;83.70;;;;;;5451992;26;20007;-42
2024/04/11 09:09:49;;;;;;;3.85;1.30;;;17.60;83.70;;;;;;5451767;26;19998;-42
2024/04/11 09:12:16;;;;;;;2.53;1.10;;;17.70;83.60;;;;;;5449955;26;19995;-41
2024/04/11 09:14:47;;;;;;;2.20;1.00;;;17.70;83.50;;;;;;5451929;26;19998;-44
2024/04/11 09:17:14;;;;;;;2.22;1.00;;;17.70;83.40;;;;;;5452004;26;20006;-44
2024/04/11 09:19:42;;;;;;;2.97;1.02;;;17.80;83.30;;;;;;5451713;26;20071;-41
2024/04/11 09:22:16;;;;;;;1.85;0.93;;;17.80;83.30;;;;;;5451659;26;20468;-42
2024/04/11 09:24:48;;;;;;;2.40;1.20;;;17.80;83.20;;;;;;5451462;26;20010;-42
2024/04/11 09:27:16;;;;;;;2.58;1.00;;;17.90;83.30;;;;;;5451749;26;20063;-43
2024/04/11 09:29:48;;;;;;;2.10;1.00;;;17.90;83.20;;;;;;5451620;26;20006;-41
2024/04/11 09:32:16;;;;;;;2.42;0.88;;;17.90;83.20;;;;;;5451467;26;20003;-44
2024/04/11 09:34:42;;;;;;;2.13;0.80;;;17.90;83.10;;;;;;5451620;26;20023;-41
2024/04/11 09:37:14;;;;;;;3.60;1.00;;;18.00;83.20;;;;;;5451442;26;20002;-41
2024/04/11 09:39:49;;;;;;;1.67;0.80;;;18.00;83.10;;;;;;5451202;26;20003;-43
2024/04/11 09:42:18;;;;;;;1.92;0.93;;;18.00;83.00;;;;;;5450689;26;20009;-43
2024/04/11 09:44:50;;;;;;;1.83;0.85;;;18.00;83.00;;;;;;5451383;26;19995;-41
2024/04/11 09:47:24;;;;;;;3.60;1.05;;;18.10;83.00;;;;;;5451352;26;20006;-41
2024/04/11 09:49:55;;;;;;;1.02;0.60;;;18.10;82.90;;;;;;5451085;26;20039;-41
2024/04/11 09:52:27;;;;;;;2.22;0.90;;;18.10;82.90;;;;;;5451137;26;19995;-45
2024/04/11 09:55:02;;;;;;;3.65;1.38;;;18.20;82.90;;;;;;5451093;26;19991;-41
2024/04/11 09:57:29;;;;;;;1.92;0.88;;;18.20;82.80;;;;;;5451056;26;19999;-41
2024/04/11 09:59:55;;;;;;;2.22;1.10;;;18.20;82.80;;;;;;5451427;26;19995;-40
2024/04/11 10:02:21;;;;;;;3.60;0.88;;;18.30;82.80;;;;;;5451104;26;20097;-42
2024/04/11 10:04:47;;;;;;;2.58;0.95;;;18.30;82.70;;;;;;5451007;26;19999;-43
2024/04/11 10:07:19;;;;;;;2.65;0.90;;;18.30;82.70;;;;;;5451025;26;19999;-42
2024/04/11 10:09:57;;;;;;;3.60;1.10;;;18.30;82.70;;;;;;5450885;26;20132;-41
2024/04/11 10:12:28;;;;;;;3.40;0.93;;;18.30;82.60;;;;;;5451071;26;19999;-41
2024/04/11 10:14:57;;;;;;;2.80;0.85;;;18.40;82.60;;;;;;5450755;26;20034;-41
2024/04/11 10:17:29;;;;;;;1.58;0.75;;;18.40;82.60;;;;;;5450637;26;20006;-43
2024/04/11 10:19:59;;;;;;;3.35;0.85;;;18.40;82.60;;;;;;5448945;26;20328;-44
2024/04/11 10:22:25;;;;;;;2.58;0.90;;;18.40;82.50;;;;;;5451021;26;20074;-41
2024/04/11 10:25:07;;;;;;;1.95;0.80;;;18.50;82.60;;;;;;5450708;26;20001;-43
2024/04/11 10:27:37;;;;;;;1.27;0.80;;;18.50;82.50;;;;;;5450606;26;20440;-42
2024/04/11 10:30:06;;;;;;;3.40;0.88;;;18.50;82.40;;;;;;5450377;26;20006;-44
2024/04/11 10:32:39;;;;;;;4.03;0.90;;;18.60;82.40;;;;;;5450798;26;19999;-42
2024/04/11 10:35:10;;;;;;;2.33;0.90;;;18.60;82.30;;;;;;5450625;26;20006;-41
2024/04/11 10:37:39;;;;;;;2.08;0.90;;;18.60;82.20;;;;;;5450031;26;20010;-41
2024/04/11 10:40:09;;;;;;;1.42;0.70;;;18.60;82.20;;;;;;5450258;26;19999;-42
2024/04/11 10:42:36;;;;;;;1.80;0.90;;;18.70;82.20;;;;;;5450430;26;20023;-44
2024/04/11 10:45:11;;;;;;;1.40;0.63;;;18.70;82.20;;;;;;5450305;26;20456;-44
2024/04/11 10:47:41;;;;;;;1.23;0.70;;;18.70;82.10;;;;;;5450160;26;19995;-41
2024/04/11 10:50:13;;;;;;;1.60;0.80;;;18.70;82.10;;;;;;5449665;26;20030;-41
2024/04/11 10:52:45;;;;;;;1.40;0.82;;;18.80;82.10;;;;;;5450061;26;19999;-42
2024/04/11 10:55:22;;;;;;;2.15;0.88;;;18.80;82.20;;;;;;5452028;26;19995;-40
2024/04/11 10:57:56;;;;;;;5.97;1.52;;;18.80;82.10;;;;;;5453725;26;19995;-40
2024/04/11 11:00:38;;;;;;;6.80;1.67;;;18.90;77.80;;;;;;5453599;26;20400;-40
2024/04/11 11:03:11;;;;;;;11.88;1.90;;;19.00;74.60;;;;;;5453852;26;20067;-41
2024/04/11 11:05:42;;;;;;;5.35;1.58;;;19.00;75.20;;;;;;5453704;26;19998;-40
2024/04/11 11:08:10;;;;;;;8.85;1.50;;;19.10;75.90;;;;;;5453696;26;20778;-41
2024/04/11 11:10:36;;;;;;;4.43;1.23;;;19.30;76.10;;;;;;5453262;26;20006;-41
2024/04/11 11:13:04;;;;;;;5.60;1.20;;;19.40;76.30;;;;;;5451631;26;20003;-42
2024/04/11 11:15:31;;;;;;;7.68;1.40;;;19.60;76.40;;;;;;5453623;26;20003;-41
2024/04/11 11:17:59;;;;;;;3.28;0.95;;;19.70;76.50;;;;;;5453558;26;20006;-45
2024/04/11 11:20:26;;;;;;;4.07;1.10;;;19.80;76.60;;;;;;5453321;26;19999;-42
2024/04/11 11:22:56;;;;;;;7.22;1.67;;;19.80;76.70;;;;;;5453504;26;19995;-40
2024/04/11 11:25:23;;;;;;;3.55;1.20;;;19.80;76.80;;;;;;5453547;26;19999;-42
2024/04/11 11:27:51;;;;;;;3.30;1.00;;;19.90;77.00;;;;;;5453171;26;20067;-42
2024/04/11 11:30:17;;;;;;;3.42;1.17;;;19.90;77.10;;;;;;5453362;26;20003;-42
2024/04/11 11:32:43;;;;;;;2.63;0.93;;;20.00;77.20;;;;;;5453684;26;20071;-43
2024/04/11 11:35:12;;;;;;;2.67;1.00;;;20.00;77.20;;;;;;5453528;26;20460;-43
2024/04/11 11:37:38;;;;;;;3.95;0.90;;;20.00;77.40;;;;;;5453054;26;20336;-41
2024/04/11 11:40:38;;;;;;;4.88;1.02;;;20.00;77.40;;;;;;5453100;26;20009;-41
2024/04/11 11:42:52;;;;;;;3.03;0.90;;;20.00;77.50;;;;;;5453024;26;19999;-41
2024/04/11 11:45:26;;;;;;;2.70;0.95;;;20.00;77.60;;;;;;5453221;26;20465;-41
2024/04/11 11:47:57;;;;;;;4.93;0.80;;;20.00;77.80;;;;;;5453092;26;20455;-41
2024/04/11 11:50:33;;;;;;;2.47;0.80;;;20.00;77.80;;;;;;5452924;26;19999;-42
2024/04/11 11:53:17;;;;;;;3.60;0.98;;;20.10;78.00;;;;;;5453403;26;20002;-41
2024/04/11 11:55:42;;;;;;;1.60;0.70;;;20.10;78.00;;;;;;5453128;26;20027;-42
2024/04/11 11:58:08;;;;;;;2.13;0.80;;;20.10;78.10;;;;;;5452836;26;20531;-42
2024/04/11 12:00:49;;;;;;;3.97;1.00;;;20.10;78.30;;;;;;5452671;26;19995;-41
2024/04/11 12:03:20;;;;;;;3.88;0.85;;;20.10;78.30;;;;;;5452817;26;20011;-41
2024/04/11 12:05:53;;;;;;;4.00;0.98;;;20.10;78.30;;;;;;5452732;26;20023;-41
2024/04/11 12:08:19;;;;;;;2.25;0.77;;;20.10;78.30;;;;;;5452797;26;20429;-42
2024/04/11 12:13:41;;;;;;;3.72;0.80;;;20.10;78.40;;;;;;5452792;26;20140;-42
2024/04/11 12:16:08;;;;;;;2.40;0.80;;;20.10;78.40;;;;;;5452850;26;20352;-41
2024/04/11 12:18:33;;;;;;;2.00;0.80;;;20.10;78.50;;;;;;5452892;26;20014;-41
2024/04/11 12:20:59;;;;;;;2.33;0.70;;;20.20;78.60;;;;;;5452555;26;19999;-42
2024/04/11 12:23:27;;;;;;;2.78;0.90;;;20.20;78.60;;;;;;5452706;26;19999;-44
2024/04/11 12:25:55;;;;;;;4.13;0.80;;;20.20;78.60;;;;;;5452821;26;20063;-40
2024/04/11 12:28:22;;;;;;;2.50;0.77;;;20.20;78.80;;;;;;5452670;26;20071;-44
2024/04/11 12:30:59;;;;;;;2.22;0.63;;;20.20;78.80;;;;;;5452328;26;20332;-40
2024/04/11 12:33:29;;;;;;;1.92;0.80;;;20.20;78.80;;;;;;5452618;26;20068;-42
2024/04/11 12:35:59;;;;;;;2.00;0.60;;;20.20;78.80;;;;;;5452383;26;20002;-41
2024/04/11 12:38:30;;;;;;;2.75;0.90;;;20.20;79.00;;;;;;5452643;26;19994;-42
2024/04/11 12:40:58;;;;;;;2.03;0.70;;;20.20;78.90;;;;;;5452645;26;20349;-41
2024/04/11 12:43:28;;;;;;;1.67;0.50;;;20.20;79.00;;;;;;5452423;26;20006;-40
2024/04/11 12:45:55;;;;;;;1.45;0.60;;;20.20;79.00;;;;;;5452374;26;19995;-39
2024/04/11 12:48:24;;;;;;;1.95;0.60;;;20.20;79.10;;;;;;5452142;26;19995;-45
2024/04/11 12:50:52;;;;;;;3.47;0.80;;;20.20;79.20;;;;;;5451887;26;19998;-42
2024/04/11 12:53:21;;;;;;;1.30;0.60;;;20.20;79.20;;;;;;5452086;26;19999;-41
2024/04/11 12:55:52;;;;;;;3.90;0.60;;;20.20;79.30;;;;;;5452177;26;20036;-41
2024/04/11 12:58:24;;;;;;;4.05;0.73;;;20.20;79.30;;;;;;5452048;26;20012;-43